createdAt,value
2018-05-18T00:02:11.146Z,25.10
2018-05-18T00:04:39.383Z,25.10
2018-05-18T00:07:07.607Z,25.10
2018-05-18T00:09:35.848Z,25.10
2018-05-18T00:12:04.066Z,25.10
2018-05-18T00:14:32.436Z,25.10
2018-05-18T00:17:00.703Z,25.10
2018-05-18T00:19:28.923Z,25.10
2018-05-18T00:21:57.179Z,25.00
2018-05-18T00:24:25.504Z,25.00
2018-05-18T00:26:54.016Z,25.00
2018-05-18T00:29:22.239Z,25.10
2018-05-18T00:31:50.470Z,25.10
2018-05-18T00:34:18.687Z,25.10
2018-05-18T00:36:46.927Z,25.00
2018-05-18T00:39:15.143Z,25.00
2018-05-18T00:41:43.471Z,25.00
2018-05-18T00:44:11.687Z,25.00
2018-05-18T00:46:39.919Z,25.00
2018-05-18T00:49:08.128Z,24.90
2018-05-18T00:51:36.563Z,24.90
2018-05-18T00:54:04.814Z,25.00
2018-05-18T00:56:33.051Z,24.90
2018-05-18T00:59:01.270Z,24.90
2018-05-18T01:01:29.779Z,24.90
2018-05-18T01:03:58.001Z,24.90
2018-05-18T01:06:27.150Z,24.90
2018-05-18T01:08:55.523Z,24.90
2018-05-18T01:11:23.754Z,24.90
2018-05-18T01:13:51.971Z,24.90
2018-05-18T01:16:20.210Z,24.90
2018-05-18T01:18:48.427Z,24.90
2018-05-18T01:21:16.685Z,24.90
2018-05-18T01:23:44.899Z,24.90
2018-05-18T01:26:13.114Z,24.80
2018-05-18T01:28:41.353Z,24.80
2018-05-18T01:31:09.566Z,24.80
2018-05-18T01:33:37.803Z,24.90
2018-05-18T01:36:06.050Z,24.80
2018-05-18T01:38:34.530Z,24.80
2018-05-18T01:41:02.771Z,24.80
2018-05-18T01:43:31.004Z,24.80
2018-05-18T01:45:59.223Z,24.80
2018-05-18T01:48:27.735Z,24.80
2018-05-18T01:50:55.987Z,24.80
2018-05-18T01:53:24.214Z,24.80
2018-05-18T01:55:52.431Z,24.80
2018-05-18T01:58:20.758Z,24.70
2018-05-18T02:00:48.976Z,24.70
2018-05-18T02:03:17.418Z,24.70
2018-05-18T02:05:45.774Z,24.70
2018-05-18T02:08:14.100Z,24.70
2018-05-18T02:10:42.319Z,24.70
2018-05-18T02:13:10.561Z,24.70
2018-05-18T02:15:38.771Z,24.70
2018-05-18T02:18:07.011Z,24.70
2018-05-18T02:20:35.223Z,24.70
2018-05-18T02:23:03.453Z,24.60
2018-05-18T02:25:31.680Z,24.60
2018-05-18T02:27:59.918Z,24.60
2018-05-18T02:30:28.199Z,24.60
2018-05-18T02:32:56.627Z,24.60
2018-05-18T02:35:24.843Z,24.60
2018-05-18T02:37:53.995Z,24.60
2018-05-18T02:40:22.318Z,24.60
2018-05-18T02:42:50.555Z,24.60
2018-05-18T02:45:18.770Z,24.60
2018-05-18T02:47:47.003Z,24.60
2018-05-18T02:50:15.221Z,24.60
2018-05-18T02:52:43.455Z,24.60
2018-05-18T02:55:11.677Z,24.50
2018-05-18T02:57:40.108Z,24.60
2018-05-18T03:00:08.431Z,24.50
2018-05-18T03:02:36.653Z,24.50
2018-05-18T03:05:04.882Z,24.50
2018-05-18T03:07:33.102Z,24.50
2018-05-18T03:10:01.337Z,24.50
2018-05-18T03:12:29.541Z,24.40
2018-05-18T03:14:57.912Z,24.40
2018-05-18T03:17:26.196Z,24.40
2018-05-18T03:19:54.552Z,24.40
2018-05-18T03:22:22.767Z,24.40
2018-05-18T03:24:51.035Z,24.40
2018-05-18T03:27:19.399Z,24.40
2018-05-18T03:29:47.632Z,24.40
2018-05-18T03:32:15.852Z,24.40
2018-05-18T03:34:44.083Z,24.40
2018-05-18T03:37:12.299Z,24.40
2018-05-18T03:39:40.615Z,24.40
2018-05-18T03:42:08.830Z,24.40
2018-05-18T03:44:37.831Z,24.40
2018-05-18T03:47:06.046Z,24.30
2018-05-18T03:49:34.289Z,24.30
2018-05-18T03:52:02.537Z,24.30
2018-05-18T03:54:30.746Z,24.30
2018-05-18T03:56:58.984Z,24.30
2018-05-18T03:59:27.495Z,24.30
2018-05-18T04:02:07.343Z,24.30
2018-05-18T04:04:47.600Z,24.30
2018-05-18T04:07:27.799Z,24.30
2018-05-18T04:09:56.016Z,24.30
2018-05-18T04:12:25.329Z,24.30
2018-05-18T04:14:54.294Z,24.30
2018-05-18T04:17:22.522Z,24.30
2018-05-18T04:19:50.755Z,24.30
2018-05-18T04:22:19.050Z,24.30
2018-05-18T04:24:47.190Z,24.20
2018-05-18T04:27:15.423Z,24.20
2018-05-18T04:29:43.647Z,24.30
2018-05-18T04:32:12.652Z,24.20
2018-05-18T04:34:41.630Z,24.20
2018-05-18T04:37:09.867Z,24.20
2018-05-18T04:39:38.083Z,24.20
2018-05-18T04:42:07.104Z,24.30
2018-05-18T04:44:35.410Z,24.20
2018-05-18T04:47:03.650Z,24.20
2018-05-18T04:49:31.880Z,24.20
2018-05-18T04:52:00.095Z,24.20
2018-05-18T04:54:28.335Z,24.20
2018-05-18T04:56:56.623Z,24.20
2018-05-18T04:59:24.970Z,24.20
2018-05-18T05:01:53.206Z,24.20
2018-05-18T05:04:21.439Z,24.20
2018-05-18T05:06:49.826Z,24.20
2018-05-18T05:09:18.222Z,24.10
2018-05-18T05:11:46.535Z,24.20
2018-05-18T05:14:14.758Z,24.10
2018-05-18T05:16:43.035Z,24.20
2018-05-18T05:19:11.269Z,24.10
2018-05-18T05:21:39.555Z,24.10
2018-05-18T05:24:07.998Z,24.10
2018-05-18T05:26:36.215Z,24.10
2018-05-18T05:29:04.460Z,24.10
2018-05-18T05:31:32.675Z,24.10
2018-05-18T05:34:01.090Z,24.10
2018-05-18T05:36:29.464Z,24.10
2018-05-18T05:38:57.879Z,24.10
2018-05-18T05:41:26.201Z,24.10
2018-05-18T05:43:54.402Z,24.10
2018-05-18T05:46:23.391Z,23.70
2018-05-18T05:48:52.411Z,22.90
2018-05-18T05:51:20.775Z,22.90
2018-05-18T05:53:49.039Z,22.40
2018-05-18T05:56:17.263Z,22.10
2018-05-18T05:58:46.159Z,22.20
2018-05-18T06:01:18.583Z,22.40
2018-05-18T06:03:50.337Z,22.50
2018-05-18T06:06:23.953Z,22.90
2018-05-18T06:08:57.891Z,23.20
2018-05-18T06:11:28.876Z,23.40
2018-05-18T06:14:02.128Z,23.60
2018-05-18T06:16:37.051Z,23.90
2018-05-18T06:19:11.219Z,23.90
2018-05-18T06:21:44.539Z,24.00
2018-05-18T06:24:16.329Z,24.20
2018-05-18T06:26:49.615Z,24.20
2018-05-18T06:29:23.105Z,24.20
2018-05-18T06:31:56.688Z,24.30
2018-05-18T06:34:28.632Z,24.40
2018-05-18T06:37:02.930Z,24.50
2018-05-18T06:39:34.270Z,24.50
2018-05-18T06:42:03.766Z,24.60
2018-05-18T06:44:32.300Z,24.70
2018-05-18T06:49:47.689Z,24.90
2018-05-18T06:52:15.910Z,24.90
2018-05-18T06:54:44.127Z,25.00
2018-05-18T06:57:15.389Z,25.10
2018-05-18T06:59:46.932Z,25.20
2018-05-18T07:02:16.130Z,25.20
2018-05-18T07:04:44.366Z,25.20
2018-05-18T07:07:12.615Z,25.30
2018-05-18T07:09:40.845Z,25.40
2018-05-18T07:12:09.128Z,25.40
2018-05-18T07:14:37.326Z,25.40
2018-05-18T07:17:05.583Z,25.50
2018-05-18T07:19:33.815Z,25.60
2018-05-18T07:22:02.062Z,25.60
2018-05-18T07:24:30.290Z,25.60
2018-05-18T07:26:58.538Z,25.70
2018-05-18T07:32:01.514Z,25.80
2018-05-18T07:34:29.985Z,25.80
2018-05-18T07:36:58.214Z,25.80
2018-05-18T07:39:27.235Z,25.60
2018-05-18T07:41:55.486Z,25.60
2018-05-18T07:44:23.724Z,25.70
2018-05-18T07:46:51.979Z,25.70
2018-05-18T07:49:20.443Z,25.80
2018-05-18T07:51:48.747Z,25.80
2018-05-18T07:54:17.218Z,25.90
2018-05-18T07:56:45.472Z,25.80
2018-05-18T07:59:13.707Z,25.80
2018-05-18T08:01:42.720Z,25.80
2018-05-18T08:04:10.955Z,25.80
2018-05-18T08:06:39.200Z,25.80
2018-05-18T08:09:07.426Z,25.80
2018-05-18T08:11:36.495Z,25.80
2018-05-18T08:14:04.750Z,25.80
2018-05-18T08:16:32.983Z,25.80
2018-05-18T08:19:01.301Z,25.80
2018-05-18T08:21:29.607Z,25.80
2018-05-18T08:23:57.800Z,25.70
2018-05-18T08:26:26.030Z,25.80
2018-05-18T08:29:06.487Z,25.80
2018-05-18T08:31:34.719Z,25.90
2018-05-18T08:34:03.126Z,25.90
2018-05-18T08:36:32.283Z,25.90
2018-05-18T08:39:00.536Z,26.00
2018-05-18T08:41:28.865Z,26.00
2018-05-18T08:43:57.264Z,26.00
2018-05-18T08:46:25.490Z,26.00
2018-05-18T08:48:53.822Z,26.00
2018-05-18T08:51:22.073Z,26.10
2018-05-18T08:53:50.433Z,26.10
2018-05-18T08:56:18.832Z,26.10
2018-05-18T08:58:47.075Z,26.10
2018-05-18T09:01:16.308Z,26.10
2018-05-18T09:03:44.594Z,26.10
2018-05-18T09:06:12.832Z,26.10
2018-05-18T09:08:41.079Z,26.20
2018-05-18T09:11:09.520Z,26.30
2018-05-18T09:13:37.915Z,26.30
2018-05-18T09:16:06.155Z,26.30
2018-05-18T09:18:34.405Z,26.30
2018-05-18T09:21:02.674Z,26.30
2018-05-18T09:23:30.956Z,26.40
2018-05-18T09:25:59.168Z,26.50
2018-05-18T09:28:27.598Z,26.50
2018-05-18T09:30:55.830Z,26.50
2018-05-18T09:33:24.103Z,26.50
2018-05-18T09:35:53.364Z,26.50
2018-05-18T09:38:21.635Z,26.50
2018-05-18T09:40:49.861Z,26.50
2018-05-18T09:43:18.106Z,26.50
2018-05-18T09:45:46.368Z,26.50
2018-05-18T09:48:14.615Z,26.50
2018-05-18T09:50:42.866Z,26.50
2018-05-18T09:53:11.101Z,26.40
2018-05-18T09:55:39.347Z,26.40
2018-05-18T09:58:07.823Z,26.50
2018-05-18T10:00:36.091Z,26.40
2018-05-18T10:03:04.946Z,26.40
2018-05-18T10:05:33.202Z,26.30
2018-05-18T10:08:01.427Z,26.30
2018-05-18T10:10:29.671Z,26.20
2018-05-18T10:12:58.677Z,26.10
2018-05-18T10:15:27.698Z,26.10
2018-05-18T10:17:55.946Z,26.00
2018-05-18T10:20:24.363Z,26.20
2018-05-18T10:22:52.586Z,26.30
2018-05-18T10:25:26.427Z,26.20
2018-05-18T10:27:54.703Z,26.20
2018-05-18T10:30:29.016Z,26.10
2018-05-18T10:32:57.268Z,26.20
2018-05-18T10:35:28.589Z,26.20
2018-05-18T10:37:56.814Z,26.10
2018-05-18T10:40:26.249Z,26.00
2018-05-18T10:42:55.095Z,26.00
2018-05-18T10:45:23.545Z,26.10
2018-05-18T10:47:51.782Z,26.20
2018-05-18T10:50:20.313Z,26.20
2018-05-18T10:52:48.562Z,26.10
2018-05-18T10:57:53.962Z,26.10
2018-05-18T11:00:22.526Z,26.10
2018-05-18T11:02:50.926Z,26.20
2018-05-18T11:05:19.173Z,26.20
2018-05-18T11:07:47.407Z,26.30
2018-05-18T11:10:15.707Z,26.40
2018-05-18T11:12:43.947Z,26.50
2018-05-18T11:15:12.176Z,26.50
2018-05-18T11:17:40.578Z,26.50
2018-05-18T11:20:08.852Z,26.50
2018-05-18T11:22:37.093Z,26.60
2018-05-18T11:25:05.315Z,26.70
2018-05-18T11:27:33.570Z,26.70
2018-05-18T11:30:02.553Z,26.70
2018-05-18T11:32:30.777Z,26.80
2018-05-18T11:34:58.999Z,26.80
2018-05-18T11:37:27.294Z,26.90
2018-05-18T11:39:55.529Z,26.90
2018-05-18T11:42:23.770Z,26.90
2018-05-18T11:44:52.007Z,26.80
2018-05-18T11:47:20.248Z,26.80
2018-05-18T11:49:48.454Z,26.70
2018-05-18T11:52:16.690Z,26.60
2018-05-18T11:54:46.774Z,26.60
2018-05-18T11:57:15.032Z,26.60
2018-05-18T11:59:43.284Z,26.60
2018-05-18T12:02:11.511Z,26.60
2018-05-18T12:04:39.768Z,26.70
2018-05-18T12:07:08.819Z,26.80
2018-05-18T12:09:37.052Z,26.80
2018-05-18T12:12:05.292Z,26.80
2018-05-18T12:14:33.551Z,26.90
2018-05-18T12:17:01.792Z,26.90
2018-05-18T12:19:30.039Z,27.00
2018-05-18T12:21:58.267Z,27.00
2018-05-18T12:24:26.509Z,26.80
2018-05-18T12:26:54.752Z,26.70
2018-05-18T12:29:29.039Z,26.70
2018-05-18T12:31:57.265Z,26.70
2018-05-18T12:34:25.553Z,26.80
2018-05-18T12:36:53.891Z,26.90
2018-05-18T12:39:22.142Z,27.00
2018-05-18T12:41:50.374Z,27.00
2018-05-18T12:44:18.618Z,27.00
2018-05-18T12:46:47.615Z,26.90
2018-05-18T12:49:16.627Z,26.90
2018-05-18T12:51:45.019Z,26.80
2018-05-18T12:54:13.262Z,26.90
2018-05-18T12:56:41.635Z,26.80
2018-05-18T12:59:09.883Z,26.90
2018-05-18T13:01:38.108Z,26.90
2018-05-18T13:04:06.551Z,26.90
2018-05-18T13:06:34.774Z,26.90
2018-05-18T13:09:03.007Z,26.90
2018-05-18T13:11:36.351Z,27.00
2018-05-18T13:14:04.583Z,27.00
2018-05-18T13:16:32.823Z,27.20
2018-05-18T13:19:01.083Z,27.20
2018-05-18T13:21:29.331Z,27.30
2018-05-18T13:23:57.554Z,27.30
2018-05-18T13:26:25.798Z,27.30
2018-05-18T13:28:54.032Z,27.20
2018-05-18T13:31:23.043Z,27.20
2018-05-18T13:33:51.274Z,27.20
2018-05-18T13:36:19.519Z,27.20
2018-05-18T13:38:47.761Z,27.10
2018-05-18T13:41:15.991Z,27.20
2018-05-18T13:43:44.227Z,27.20
2018-05-18T13:46:12.599Z,27.20
2018-05-18T13:48:40.833Z,27.20
2018-05-18T13:54:00.503Z,27.40
2018-05-18T13:56:28.751Z,27.60
2018-05-18T13:58:57.207Z,27.70
2018-05-18T14:01:25.715Z,27.80
2018-05-18T14:03:53.991Z,27.60
2018-05-18T14:06:22.423Z,27.60
2018-05-18T14:08:50.654Z,27.60
2018-05-18T14:11:18.902Z,27.60
2018-05-18T14:13:47.299Z,27.60
2018-05-18T14:16:15.548Z,27.60
2018-05-18T14:18:43.959Z,27.50
2018-05-18T14:21:12.350Z,27.40
2018-05-18T14:23:40.679Z,27.20
2018-05-18T14:26:08.977Z,27.20
2018-05-18T14:28:37.198Z,27.10
2018-05-18T14:31:05.588Z,27.20
2018-05-18T14:33:33.818Z,27.30
2018-05-18T14:36:02.075Z,27.30
2018-05-18T14:38:30.383Z,27.20
2018-05-18T14:40:58.606Z,27.10
2018-05-18T14:43:26.853Z,27.20
2018-05-18T14:45:55.076Z,27.20
2018-05-18T14:48:23.322Z,27.30
2018-05-18T14:50:52.328Z,27.50
2018-05-18T14:53:21.330Z,27.60
2018-05-18T14:55:49.714Z,27.60
2018-05-18T14:58:18.018Z,27.60
2018-05-18T15:00:46.479Z,27.60
2018-05-18T15:03:14.739Z,27.60
2018-05-18T15:05:43.108Z,27.60
2018-05-18T15:08:11.343Z,27.60
2018-05-18T15:10:39.566Z,27.60
2018-05-18T15:13:07.802Z,27.70
2018-05-18T15:15:36.827Z,27.70
2018-05-18T15:18:05.090Z,27.70
2018-05-18T15:20:34.088Z,27.80
2018-05-18T15:23:03.131Z,27.70
2018-05-18T15:25:31.355Z,27.70
2018-05-18T15:27:59.599Z,27.60
2018-05-18T15:30:27.819Z,27.30
2018-05-18T15:32:56.203Z,27.40
2018-05-18T15:35:24.595Z,27.40
2018-05-18T15:37:53.000Z,27.40
2018-05-18T15:40:21.449Z,27.50
2018-05-18T15:42:52.260Z,27.40
2018-05-18T15:48:20.089Z,27.70
2018-05-18T15:53:36.786Z,28.20
2018-05-18T16:02:05.014Z,28.70
2018-05-18T16:08:02.946Z,28.50
2018-05-18T16:10:50.944Z,28.50
2018-05-18T16:17:04.371Z,28.60
